sensor_id;sensor_type;location;lat;lon;timestamp;temperature;humidity
30628;DHT22;17394;50.890;4.724;2024-02-21T00:02:18;9.20;99.90
30628;DHT22;17394;50.890;4.724;2024-02-21T00:04:44;9.20;99.90
30628;DHT22;17394;50.890;4.724;2024-02-21T00:07:10;9.20;99.90
30628;DHT22;17394;50.890;4.724;2024-02-21T00:09:36;9.20;99.90
30628;DHT22;17394;50.890;4.724;2024-02-21T00:12:02;9.20;99.90
30628;DHT22;17394;50.890;4.724;2024-02-21T00:14:28;9.20;99.90
30628;DHT22;17394;50.890;4.724;2024-02-21T00:16:54;9.20;99.90
30628;DHT22;17394;50.890;4.724;2024-02-21T00:19:20;9.10;99.90
30628;DHT22;17394;50.890;4.724;2024-02-21T00:21:46;9.10;99.90
30628;DHT22;17394;50.890;4.724;2024-02-21T00:24:12;9.10;99.90
30628;DHT22;17394;50.890;4.724;2024-02-21T00:26:38;9.10;99.90
30628;DHT22;17394;50.890;4.724;2024-02-21T00:29:03;9.10;99.90
30628;DHT22;17394;50.890;4.724;2024-02-21T00:31:31;9.10;99.90
30628;DHT22;17394;50.890;4.724;2024-02-21T00:33:56;9.10;99.90
30628;DHT22;17394;50.890;4.724;2024-02-21T00:36:23;9.10;99.90
30628;DHT22;17394;50.890;4.724;2024-02-21T00:38:49;9.20;99.90
30628;DHT22;17394;50.890;4.724;2024-02-21T00:41:15;9.10;99.90
30628;DHT22;17394;50.890;4.724;2024-02-21T00:43:41;9.20;99.90
30628;DHT22;17394;50.890;4.724;2024-02-21T00:46:07;9.20;99.90
30628;DHT22;17394;50.890;4.724;2024-02-21T00:48:33;9.10;99.90
30628;DHT22;17394;50.890;4.724;2024-02-21T00:51:00;9.20;99.90
30628;DHT22;17394;50.890;4.724;2024-02-21T00:53:25;9.10;99.90
30628;DHT22;17394;50.890;4.724;2024-02-21T00:55:51;9.20;99.90
30628;DHT22;17394;50.890;4.724;2024-02-21T00:58:17;9.20;99.90
30628;DHT22;17394;50.890;4.724;2024-02-21T01:00:43;9.20;99.90
30628;DHT22;17394;50.890;4.724;2024-02-21T01:03:08;9.10;99.90
30628;DHT22;17394;50.890;4.724;2024-02-21T01:05:34;9.10;99.90
30628;DHT22;17394;50.890;4.724;2024-02-21T01:08:00;9.10;99.90
30628;DHT22;17394;50.890;4.724;2024-02-21T01:10:26;9.10;99.90
30628;DHT22;17394;50.890;4.724;2024-02-21T01:12:51;9.10;99.90
30628;DHT22;17394;50.890;4.724;2024-02-21T01:15:17;9.10;99.90
30628;DHT22;17394;50.890;4.724;2024-02-21T01:17:43;9.10;99.90
30628;DHT22;17394;50.890;4.724;2024-02-21T01:20:09;9.20;99.90
30628;DHT22;17394;50.890;4.724;2024-02-21T01:22:35;9.10;99.90
30628;DHT22;17394;50.890;4.724;2024-02-21T01:25:01;9.10;99.90
30628;DHT22;17394;50.890;4.724;2024-02-21T01:27:27;9.10;99.90
30628;DHT22;17394;50.890;4.724;2024-02-21T01:29:53;9.20;99.90
30628;DHT22;17394;50.890;4.724;2024-02-21T01:32:18;9.10;99.90
30628;DHT22;17394;50.890;4.724;2024-02-21T01:34:44;9.10;99.90
30628;DHT22;17394;50.890;4.724;2024-02-21T01:37:10;9.10;99.90
30628;DHT22;17394;50.890;4.724;2024-02-21T01:39:36;9.10;99.90
30628;DHT22;17394;50.890;4.724;2024-02-21T01:42:02;9.10;99.90
30628;DHT22;17394;50.890;4.724;2024-02-21T01:44:29;9.10;99.90
30628;DHT22;17394;50.890;4.724;2024-02-21T01:46:54;9.10;99.90
30628;DHT22;17394;50.890;4.724;2024-02-21T01:49:21;9.10;99.90
30628;DHT22;17394;50.890;4.724;2024-02-21T01:51:48;9.10;99.90
30628;DHT22;17394;50.890;4.724;2024-02-21T01:54:16;9.10;99.90
30628;DHT22;17394;50.890;4.724;2024-02-21T01:56:43;9.00;99.90
30628;DHT22;17394;50.890;4.724;2024-02-21T01:59:11;9.10;99.90
30628;DHT22;17394;50.890;4.724;2024-02-21T02:01:39;9.00;99.90
30628;DHT22;17394;50.890;4.724;2024-02-21T02:04:06;9.00;99.90
30628;DHT22;17394;50.890;4.724;2024-02-21T02:06:32;8.90;99.90
30628;DHT22;17394;50.890;4.724;2024-02-21T02:08:58;8.90;99.90
30628;DHT22;17394;50.890;4.724;2024-02-21T02:11:24;8.90;99.90
30628;DHT22;17394;50.890;4.724;2024-02-21T02:13:50;8.90;99.90
30628;DHT22;17394;50.890;4.724;2024-02-21T02:16:16;8.90;99.90
30628;DHT22;17394;50.890;4.724;2024-02-21T02:18:42;8.90;99.90
30628;DHT22;17394;50.890;4.724;2024-02-21T02:21:20;8.90;99.90
30628;DHT22;17394;50.890;4.724;2024-02-21T02:23:48;8.90;99.90
30628;DHT22;17394;50.890;4.724;2024-02-21T02:26:14;8.90;99.90
30628;DHT22;17394;50.890;4.724;2024-02-21T02:28:40;8.90;99.90
30628;DHT22;17394;50.890;4.724;2024-02-21T02:31:06;8.90;99.90
30628;DHT22;17394;50.890;4.724;2024-02-21T02:33:32;8.90;99.90
30628;DHT22;17394;50.890;4.724;2024-02-21T02:35:57;9.00;99.90
30628;DHT22;17394;50.890;4.724;2024-02-21T02:38:24;9.00;99.90
30628;DHT22;17394;50.890;4.724;2024-02-21T02:40:50;9.00;99.90
30628;DHT22;17394;50.890;4.724;2024-02-21T02:43:15;9.00;99.90
30628;DHT22;17394;50.890;4.724;2024-02-21T02:45:42;9.00;99.90
30628;DHT22;17394;50.890;4.724;2024-02-21T02:48:08;8.90;99.90
30628;DHT22;17394;50.890;4.724;2024-02-21T02:50:34;8.90;99.90
30628;DHT22;17394;50.890;4.724;2024-02-21T02:52:59;8.90;99.90
30628;DHT22;17394;50.890;4.724;2024-02-21T02:55:25;8.90;99.90
30628;DHT22;17394;50.890;4.724;2024-02-21T02:57:51;8.90;99.90
30628;DHT22;17394;50.890;4.724;2024-02-21T03:00:17;8.90;99.90
30628;DHT22;17394;50.890;4.724;2024-02-21T03:02:45;9.00;99.90
30628;DHT22;17394;50.890;4.724;2024-02-21T03:05:19;8.90;99.90
30628;DHT22;17394;50.890;4.724;2024-02-21T03:07:46;8.90;99.90
30628;DHT22;17394;50.890;4.724;2024-02-21T03:10:13;8.90;99.90
30628;DHT22;17394;50.890;4.724;2024-02-21T03:12:39;8.90;99.90
30628;DHT22;17394;50.890;4.724;2024-02-21T03:15:06;8.90;99.90
30628;DHT22;17394;50.890;4.724;2024-02-21T03:17:32;8.90;99.90
30628;DHT22;17394;50.890;4.724;2024-02-21T03:20:00;8.90;99.90
30628;DHT22;17394;50.890;4.724;2024-02-21T03:22:26;8.90;99.90
30628;DHT22;17394;50.890;4.724;2024-02-21T03:24:52;8.90;99.90
30628;DHT22;17394;50.890;4.724;2024-02-21T03:27:18;8.80;99.90
30628;DHT22;17394;50.890;4.724;2024-02-21T03:29:44;8.80;99.90
30628;DHT22;17394;50.890;4.724;2024-02-21T03:32:10;8.80;99.90
30628;DHT22;17394;50.890;4.724;2024-02-21T03:34:35;8.80;99.90
30628;DHT22;17394;50.890;4.724;2024-02-21T03:37:01;8.80;99.90
30628;DHT22;17394;50.890;4.724;2024-02-21T03:39:27;8.90;99.90
30628;DHT22;17394;50.890;4.724;2024-02-21T03:41:56;8.90;99.90
30628;DHT22;17394;50.890;4.724;2024-02-21T03:44:21;8.80;99.90
30628;DHT22;17394;50.890;4.724;2024-02-21T03:46:47;8.80;99.90
30628;DHT22;17394;50.890;4.724;2024-02-21T03:49:13;8.80;99.90
30628;DHT22;17394;50.890;4.724;2024-02-21T03:51:39;8.80;99.90
30628;DHT22;17394;50.890;4.724;2024-02-21T03:54:05;8.80;99.90
30628;DHT22;17394;50.890;4.724;2024-02-21T03:56:30;8.80;99.90
30628;DHT22;17394;50.890;4.724;2024-02-21T03:58:56;8.80;99.90
30628;DHT22;17394;50.890;4.724;2024-02-21T04:01:22;8.90;99.90
30628;DHT22;17394;50.890;4.724;2024-02-21T04:03:48;8.90;99.90
30628;DHT22;17394;50.890;4.724;2024-02-21T04:06:14;8.80;99.90
30628;DHT22;17394;50.890;4.724;2024-02-21T04:08:39;8.80;99.90
30628;DHT22;17394;50.890;4.724;2024-02-21T04:11:05;8.90;99.90
30628;DHT22;17394;50.890;4.724;2024-02-21T04:13:31;8.90;99.90
30628;DHT22;17394;50.890;4.724;2024-02-21T04:15:57;8.80;99.90
30628;DHT22;17394;50.890;4.724;2024-02-21T04:18:22;8.80;99.90
30628;DHT22;17394;50.890;4.724;2024-02-21T04:20:48;8.80;99.90
30628;DHT22;17394;50.890;4.724;2024-02-21T04:23:14;8.90;99.90
30628;DHT22;17394;50.890;4.724;2024-02-21T04:25:40;8.80;99.90
30628;DHT22;17394;50.890;4.724;2024-02-21T04:28:05;8.80;99.90
30628;DHT22;17394;50.890;4.724;2024-02-21T04:30:32;8.80;99.90
30628;DHT22;17394;50.890;4.724;2024-02-21T04:32:58;8.80;99.90
30628;DHT22;17394;50.890;4.724;2024-02-21T04:35:23;8.80;99.90
30628;DHT22;17394;50.890;4.724;2024-02-21T04:37:50;8.80;99.90
30628;DHT22;17394;50.890;4.724;2024-02-21T04:40:15;8.80;99.90
30628;DHT22;17394;50.890;4.724;2024-02-21T04:42:42;8.80;99.90
30628;DHT22;17394;50.890;4.724;2024-02-21T04:45:09;8.80;99.90
30628;DHT22;17394;50.890;4.724;2024-02-21T04:47:34;8.80;99.90
30628;DHT22;17394;50.890;4.724;2024-02-21T04:50:00;8.80;99.90
30628;DHT22;17394;50.890;4.724;2024-02-21T04:52:26;8.80;99.90
30628;DHT22;17394;50.890;4.724;2024-02-21T04:54:52;8.80;99.90
30628;DHT22;17394;50.890;4.724;2024-02-21T04:57:18;8.80;99.90
30628;DHT22;17394;50.890;4.724;2024-02-21T04:59:44;8.90;99.90
30628;DHT22;17394;50.890;4.724;2024-02-21T05:02:10;8.80;99.90
30628;DHT22;17394;50.890;4.724;2024-02-21T05:04:36;8.90;99.90
30628;DHT22;17394;50.890;4.724;2024-02-21T05:07:04;8.80;99.90
30628;DHT22;17394;50.890;4.724;2024-02-21T05:09:30;8.80;99.90
30628;DHT22;17394;50.890;4.724;2024-02-21T05:11:56;8.80;99.90
30628;DHT22;17394;50.890;4.724;2024-02-21T05:14:24;8.90;99.90
30628;DHT22;17394;50.890;4.724;2024-02-21T05:16:50;8.80;99.90
30628;DHT22;17394;50.890;4.724;2024-02-21T05:19:16;8.80;99.90
30628;DHT22;17394;50.890;4.724;2024-02-21T05:21:42;8.80;99.90
30628;DHT22;17394;50.890;4.724;2024-02-21T05:24:08;8.80;99.90
30628;DHT22;17394;50.890;4.724;2024-02-21T05:26:33;8.80;99.90
30628;DHT22;17394;50.890;4.724;2024-02-21T05:28:59;8.80;99.90
30628;DHT22;17394;50.890;4.724;2024-02-21T05:31:25;8.80;99.90
30628;DHT22;17394;50.890;4.724;2024-02-21T05:33:51;8.80;99.90
30628;DHT22;17394;50.890;4.724;2024-02-21T05:36:17;8.80;99.90
30628;DHT22;17394;50.890;4.724;2024-02-21T05:38:42;8.80;99.90
30628;DHT22;17394;50.890;4.724;2024-02-21T05:41:08;8.80;99.90
30628;DHT22;17394;50.890;4.724;2024-02-21T05:43:34;8.80;99.90
30628;DHT22;17394;50.890;4.724;2024-02-21T05:46:00;8.80;99.90
30628;DHT22;17394;50.890;4.724;2024-02-21T05:48:25;8.80;99.90
30628;DHT22;17394;50.890;4.724;2024-02-21T05:50:51;8.80;99.90
30628;DHT22;17394;50.890;4.724;2024-02-21T05:53:17;8.80;99.90
30628;DHT22;17394;50.890;4.724;2024-02-21T05:55:43;8.80;99.90
30628;DHT22;17394;50.890;4.724;2024-02-21T05:58:09;8.90;99.90
30628;DHT22;17394;50.890;4.724;2024-02-21T06:00:38;8.90;99.90
30628;DHT22;17394;50.890;4.724;2024-02-21T06:03:04;8.90;99.90
30628;DHT22;17394;50.890;4.724;2024-02-21T06:05:30;8.90;99.90
30628;DHT22;17394;50.890;4.724;2024-02-21T06:07:57;8.90;99.90
30628;DHT22;17394;50.890;4.724;2024-02-21T06:10:23;8.90;99.90
30628;DHT22;17394;50.890;4.724;2024-02-21T06:12:49;8.80;99.90
30628;DHT22;17394;50.890;4.724;2024-02-21T06:15:15;8.80;99.90
30628;DHT22;17394;50.890;4.724;2024-02-21T06:17:40;8.90;99.90
30628;DHT22;17394;50.890;4.724;2024-02-21T06:20:07;8.90;99.90
30628;DHT22;17394;50.890;4.724;2024-02-21T06:22:33;8.90;99.90
30628;DHT22;17394;50.890;4.724;2024-02-21T06:24:59;8.80;99.90
30628;DHT22;17394;50.890;4.724;2024-02-21T06:27:25;8.90;99.90
30628;DHT22;17394;50.890;4.724;2024-02-21T06:29:51;8.90;99.90
30628;DHT22;17394;50.890;4.724;2024-02-21T06:32:17;8.90;99.90
30628;DHT22;17394;50.890;4.724;2024-02-21T06:34:42;8.80;99.90
30628;DHT22;17394;50.890;4.724;2024-02-21T06:37:09;8.90;99.90
30628;DHT22;17394;50.890;4.724;2024-02-21T06:39:35;8.90;99.90
30628;DHT22;17394;50.890;4.724;2024-02-21T06:42:03;8.90;99.90
30628;DHT22;17394;50.890;4.724;2024-02-21T06:44:29;8.90;99.90
30628;DHT22;17394;50.890;4.724;2024-02-21T06:46:54;8.90;99.90
30628;DHT22;17394;50.890;4.724;2024-02-21T06:49:20;8.90;99.90
30628;DHT22;17394;50.890;4.724;2024-02-21T06:51:46;8.90;99.90
30628;DHT22;17394;50.890;4.724;2024-02-21T06:54:12;8.80;99.90
30628;DHT22;17394;50.890;4.724;2024-02-21T06:56:39;8.90;99.90
30628;DHT22;17394;50.890;4.724;2024-02-21T06:59:05;8.90;99.90
30628;DHT22;17394;50.890;4.724;2024-02-21T07:01:31;8.90;99.90
30628;DHT22;17394;50.890;4.724;2024-02-21T07:03:57;8.90;99.90
30628;DHT22;17394;50.890;4.724;2024-02-21T07:06:23;8.90;99.90
30628;DHT22;17394;50.890;4.724;2024-02-21T07:08:49;8.80;99.90
30628;DHT22;17394;50.890;4.724;2024-02-21T07:11:15;8.80;99.90
30628;DHT22;17394;50.890;4.724;2024-02-21T07:13:41;8.80;99.90
30628;DHT22;17394;50.890;4.724;2024-02-21T07:16:07;8.80;99.90
30628;DHT22;17394;50.890;4.724;2024-02-21T07:18:34;8.80;99.90
30628;DHT22;17394;50.890;4.724;2024-02-21T07:20:59;8.80;99.90
30628;DHT22;17394;50.890;4.724;2024-02-21T07:23:25;8.80;99.90
30628;DHT22;17394;50.890;4.724;2024-02-21T07:25:51;8.70;99.90
30628;DHT22;17394;50.890;4.724;2024-02-21T07:28:17;8.70;99.90
30628;DHT22;17394;50.890;4.724;2024-02-21T07:30:43;8.80;99.90
30628;DHT22;17394;50.890;4.724;2024-02-21T07:33:09;8.80;99.90
30628;DHT22;17394;50.890;4.724;2024-02-21T07:35:35;8.80;99.90
30628;DHT22;17394;50.890;4.724;2024-02-21T07:38:06;8.80;99.90
30628;DHT22;17394;50.890;4.724;2024-02-21T07:40:32;8.80;99.90
30628;DHT22;17394;50.890;4.724;2024-02-21T07:42:58;8.80;99.90
30628;DHT22;17394;50.890;4.724;2024-02-21T07:45:24;8.80;99.90
30628;DHT22;17394;50.890;4.724;2024-02-21T07:47:50;8.80;99.90
30628;DHT22;17394;50.890;4.724;2024-02-21T07:50:16;8.80;99.90
30628;DHT22;17394;50.890;4.724;2024-02-21T07:52:42;8.80;99.90
30628;DHT22;17394;50.890;4.724;2024-02-21T07:55:08;8.80;99.90
30628;DHT22;17394;50.890;4.724;2024-02-21T07:57:36;8.80;99.90
30628;DHT22;17394;50.890;4.724;2024-02-21T08:00:03;8.80;99.90
30628;DHT22;17394;50.890;4.724;2024-02-21T08:02:30;8.90;99.90
30628;DHT22;17394;50.890;4.724;2024-02-21T08:04:56;8.90;99.90
30628;DHT22;17394;50.890;4.724;2024-02-21T08:07:21;8.90;99.90
30628;DHT22;17394;50.890;4.724;2024-02-21T08:09:47;8.90;99.90
30628;DHT22;17394;50.890;4.724;2024-02-21T08:12:13;9.00;99.90
30628;DHT22;17394;50.890;4.724;2024-02-21T08:14:39;9.00;99.90
30628;DHT22;17394;50.890;4.724;2024-02-21T08:17:05;9.10;99.90
30628;DHT22;17394;50.890;4.724;2024-02-21T08:19:30;9.10;99.90
30628;DHT22;17394;50.890;4.724;2024-02-21T08:21:56;9.10;99.90
30628;DHT22;17394;50.890;4.724;2024-02-21T08:24:22;9.10;99.90
30628;DHT22;17394;50.890;4.724;2024-02-21T08:26:48;9.10;99.90
30628;DHT22;17394;50.890;4.724;2024-02-21T08:29:14;9.20;99.90
30628;DHT22;17394;50.890;4.724;2024-02-21T08:31:40;9.20;99.90
30628;DHT22;17394;50.890;4.724;2024-02-21T08:34:06;9.20;99.90
30628;DHT22;17394;50.890;4.724;2024-02-21T08:36:33;9.20;99.90
30628;DHT22;17394;50.890;4.724;2024-02-21T08:38:59;9.20;99.90
30628;DHT22;17394;50.890;4.724;2024-02-21T08:41:26;9.20;99.90
30628;DHT22;17394;50.890;4.724;2024-02-21T08:43:53;9.30;99.90
30628;DHT22;17394;50.890;4.724;2024-02-21T08:46:23;9.30;99.90
30628;DHT22;17394;50.890;4.724;2024-02-21T08:48:53;9.30;99.90
30628;DHT22;17394;50.890;4.724;2024-02-21T08:51:20;9.30;99.90
30628;DHT22;17394;50.890;4.724;2024-02-21T08:53:48;9.40;99.90
30628;DHT22;17394;50.890;4.724;2024-02-21T08:56:14;9.40;99.90
30628;DHT22;17394;50.890;4.724;2024-02-21T08:58:41;9.40;99.90
30628;DHT22;17394;50.890;4.724;2024-02-21T09:01:07;9.40;99.90
30628;DHT22;17394;50.890;4.724;2024-02-21T09:03:39;9.40;99.90
30628;DHT22;17394;50.890;4.724;2024-02-21T09:06:09;9.50;99.90
30628;DHT22;17394;50.890;4.724;2024-02-21T09:08:35;9.50;99.90
30628;DHT22;17394;50.890;4.724;2024-02-21T09:11:02;9.50;99.90
30628;DHT22;17394;50.890;4.724;2024-02-21T09:13:28;9.60;99.90
30628;DHT22;17394;50.890;4.724;2024-02-21T09:15:54;9.70;99.90
30628;DHT22;17394;50.890;4.724;2024-02-21T09:18:19;9.70;99.90
30628;DHT22;17394;50.890;4.724;2024-02-21T09:20:45;9.70;99.90
30628;DHT22;17394;50.890;4.724;2024-02-21T09:23:13;9.80;99.90
30628;DHT22;17394;50.890;4.724;2024-02-21T09:25:39;9.90;99.90
30628;DHT22;17394;50.890;4.724;2024-02-21T09:28:05;10.00;99.90
30628;DHT22;17394;50.890;4.724;2024-02-21T09:30:35;10.00;99.90
30628;DHT22;17394;50.890;4.724;2024-02-21T09:33:01;10.10;99.90
30628;DHT22;17394;50.890;4.724;2024-02-21T09:35:28;10.20;99.90
30628;DHT22;17394;50.890;4.724;2024-02-21T09:37:54;10.30;99.90
30628;DHT22;17394;50.890;4.724;2024-02-21T09:40:21;10.40;99.90
30628;DHT22;17394;50.890;4.724;2024-02-21T09:42:47;10.40;99.90
30628;DHT22;17394;50.890;4.724;2024-02-21T09:45:24;10.50;99.90
30628;DHT22;17394;50.890;4.724;2024-02-21T09:50:46;10.70;99.90
30628;DHT22;17394;50.890;4.724;2024-02-21T09:53:13;10.70;99.90
30628;DHT22;17394;50.890;4.724;2024-02-21T09:55:40;10.80;99.90
30628;DHT22;17394;50.890;4.724;2024-02-21T09:58:08;10.90;99.90
30628;DHT22;17394;50.890;4.724;2024-02-21T10:00:35;10.90;99.90
30628;DHT22;17394;50.890;4.724;2024-02-21T10:03:02;11.00;99.90
30628;DHT22;17394;50.890;4.724;2024-02-21T10:05:37;11.00;99.90
30628;DHT22;17394;50.890;4.724;2024-02-21T10:08:04;11.00;99.90
30628;DHT22;17394;50.890;4.724;2024-02-21T10:10:30;11.10;99.90
30628;DHT22;17394;50.890;4.724;2024-02-21T10:13:05;11.10;99.90
30628;DHT22;17394;50.890;4.724;2024-02-21T10:15:31;11.20;99.90
30628;DHT22;17394;50.890;4.724;2024-02-21T10:18:01;11.30;99.90
30628;DHT22;17394;50.890;4.724;2024-02-21T10:20:32;11.30;99.90
30628;DHT22;17394;50.890;4.724;2024-02-21T10:23:05;11.30;99.90
30628;DHT22;17394;50.890;4.724;2024-02-21T10:25:37;11.30;99.90
30628;DHT22;17394;50.890;4.724;2024-02-21T10:28:15;11.40;99.90
30628;DHT22;17394;50.890;4.724;2024-02-21T10:30:51;11.40;99.90
30628;DHT22;17394;50.890;4.724;2024-02-21T10:33:17;11.50;99.90
30628;DHT22;17394;50.890;4.724;2024-02-21T10:35:47;11.50;99.90
30628;DHT22;17394;50.890;4.724;2024-02-21T10:38:13;11.50;99.90
30628;DHT22;17394;50.890;4.724;2024-02-21T10:40:39;11.60;99.90
30628;DHT22;17394;50.890;4.724;2024-02-21T10:43:12;11.60;99.90
30628;DHT22;17394;50.890;4.724;2024-02-21T10:45:39;11.70;99.90
30628;DHT22;17394;50.890;4.724;2024-02-21T10:48:11;11.80;99.90
30628;DHT22;17394;50.890;4.724;2024-02-21T10:58:44;12.10;99.90
30628;DHT22;17394;50.890;4.724;2024-02-21T11:01:12;12.10;99.90
30628;DHT22;17394;50.890;4.724;2024-02-21T11:03:42;12.10;99.90
30628;DHT22;17394;50.890;4.724;2024-02-21T11:06:11;12.10;99.90
30628;DHT22;17394;50.890;4.724;2024-02-21T11:08:37;12.10;99.90
30628;DHT22;17394;50.890;4.724;2024-02-21T11:11:05;12.20;99.90
30628;DHT22;17394;50.890;4.724;2024-02-21T11:13:37;12.20;99.90
30628;DHT22;17394;50.890;4.724;2024-02-21T11:16:11;12.10;99.90
30628;DHT22;17394;50.890;4.724;2024-02-21T11:18:37;12.20;99.90
30628;DHT22;17394;50.890;4.724;2024-02-21T11:21:04;12.30;99.90
30628;DHT22;17394;50.890;4.724;2024-02-21T11:23:32;12.40;99.90
30628;DHT22;17394;50.890;4.724;2024-02-21T11:26:09;12.50;99.90
30628;DHT22;17394;50.890;4.724;2024-02-21T11:28:36;12.60;99.90
30628;DHT22;17394;50.890;4.724;2024-02-21T11:31:13;12.60;99.90
30628;DHT22;17394;50.890;4.724;2024-02-21T11:33:42;12.50;99.90
30628;DHT22;17394;50.890;4.724;2024-02-21T11:36:09;12.50;99.90
30628;DHT22;17394;50.890;4.724;2024-02-21T11:38:35;12.60;99.90
30628;DHT22;17394;50.890;4.724;2024-02-21T11:41:02;12.60;99.90
30628;DHT22;17394;50.890;4.724;2024-02-21T11:43:27;12.50;99.90
30628;DHT22;17394;50.890;4.724;2024-02-21T11:46:03;12.50;99.90
30628;DHT22;17394;50.890;4.724;2024-02-21T11:48:31;12.50;99.90
30628;DHT22;17394;50.890;4.724;2024-02-21T11:50:57;12.40;99.90
30628;DHT22;17394;50.890;4.724;2024-02-21T11:53:23;12.30;99.90
30628;DHT22;17394;50.890;4.724;2024-02-21T11:55:50;12.20;99.90
30628;DHT22;17394;50.890;4.724;2024-02-21T11:58:16;12.20;99.90
30628;DHT22;17394;50.890;4.724;2024-02-21T12:00:42;12.10;99.90
30628;DHT22;17394;50.890;4.724;2024-02-21T12:03:08;12.10;99.90
30628;DHT22;17394;50.890;4.724;2024-02-21T12:05:34;12.10;99.90
30628;DHT22;17394;50.890;4.724;2024-02-21T12:08:00;12.10;99.90
30628;DHT22;17394;50.890;4.724;2024-02-21T12:10:27;12.00;99.90
30628;DHT22;17394;50.890;4.724;2024-02-21T12:13:08;12.00;99.90
30628;DHT22;17394;50.890;4.724;2024-02-21T12:15:35;12.00;99.90
30628;DHT22;17394;50.890;4.724;2024-02-21T12:18:01;12.00;99.90
30628;DHT22;17394;50.890;4.724;2024-02-21T12:20:27;11.90;99.90
30628;DHT22;17394;50.890;4.724;2024-02-21T12:22:52;11.90;99.90
30628;DHT22;17394;50.890;4.724;2024-02-21T12:25:21;11.90;99.90
30628;DHT22;17394;50.890;4.724;2024-02-21T12:27:52;11.80;99.90
30628;DHT22;17394;50.890;4.724;2024-02-21T12:30:19;11.80;99.90
30628;DHT22;17394;50.890;4.724;2024-02-21T12:32:46;11.80;99.90
30628;DHT22;17394;50.890;4.724;2024-02-21T12:35:12;11.80;99.90
30628;DHT22;17394;50.890;4.724;2024-02-21T12:37:37;11.80;99.90
30628;DHT22;17394;50.890;4.724;2024-02-21T12:40:05;11.80;99.90
30628;DHT22;17394;50.890;4.724;2024-02-21T12:42:33;11.90;99.90
30628;DHT22;17394;50.890;4.724;2024-02-21T12:44:59;11.90;99.90
30628;DHT22;17394;50.890;4.724;2024-02-21T12:47:26;11.90;99.90
30628;DHT22;17394;50.890;4.724;2024-02-21T12:49:52;11.90;99.90
30628;DHT22;17394;50.890;4.724;2024-02-21T12:52:19;11.90;99.90
30628;DHT22;17394;50.890;4.724;2024-02-21T12:54:44;11.90;99.90
30628;DHT22;17394;50.890;4.724;2024-02-21T12:57:10;11.90;99.90
30628;DHT22;17394;50.890;4.724;2024-02-21T12:59:36;11.90;99.90
30628;DHT22;17394;50.890;4.724;2024-02-21T13:02:02;12.00;99.90
30628;DHT22;17394;50.890;4.724;2024-02-21T13:04:28;12.00;99.90
30628;DHT22;17394;50.890;4.724;2024-02-21T13:06:54;12.00;99.90
30628;DHT22;17394;50.890;4.724;2024-02-21T13:09:21;12.00;99.90
30628;DHT22;17394;50.890;4.724;2024-02-21T13:11:47;12.00;99.90
30628;DHT22;17394;50.890;4.724;2024-02-21T13:14:13;11.90;99.90
30628;DHT22;17394;50.890;4.724;2024-02-21T13:16:39;11.90;99.90
30628;DHT22;17394;50.890;4.724;2024-02-21T13:19:06;11.90;99.90
30628;DHT22;17394;50.890;4.724;2024-02-21T13:21:34;11.90;99.90
30628;DHT22;17394;50.890;4.724;2024-02-21T13:24:01;12.00;99.90
30628;DHT22;17394;50.890;4.724;2024-02-21T13:26:27;11.90;99.90
30628;DHT22;17394;50.890;4.724;2024-02-21T13:28:53;12.00;99.90
30628;DHT22;17394;50.890;4.724;2024-02-21T13:31:19;12.00;99.90
30628;DHT22;17394;50.890;4.724;2024-02-21T13:33:45;12.00;99.90
30628;DHT22;17394;50.890;4.724;2024-02-21T13:36:11;12.00;99.90
30628;DHT22;17394;50.890;4.724;2024-02-21T13:38:38;11.90;99.90
30628;DHT22;17394;50.890;4.724;2024-02-21T13:41:06;11.90;99.90
30628;DHT22;17394;50.890;4.724;2024-02-21T13:43:33;11.80;99.90
30628;DHT22;17394;50.890;4.724;2024-02-21T13:46:01;11.80;99.90
30628;DHT22;17394;50.890;4.724;2024-02-21T13:48:35;11.80;99.90
30628;DHT22;17394;50.890;4.724;2024-02-21T13:51:01;11.70;99.90
30628;DHT22;17394;50.890;4.724;2024-02-21T13:53:30;11.70;99.90
30628;DHT22;17394;50.890;4.724;2024-02-21T13:55:55;11.70;99.90
30628;DHT22;17394;50.890;4.724;2024-02-21T13:58:21;11.70;99.90
30628;DHT22;17394;50.890;4.724;2024-02-21T14:00:47;11.60;99.90
30628;DHT22;17394;50.890;4.724;2024-02-21T14:03:13;11.50;99.90
30628;DHT22;17394;50.890;4.724;2024-02-21T14:05:39;11.50;99.90
30628;DHT22;17394;50.890;4.724;2024-02-21T14:08:06;11.40;99.90
30628;DHT22;17394;50.890;4.724;2024-02-21T14:10:32;11.30;99.90
30628;DHT22;17394;50.890;4.724;2024-02-21T14:12:59;11.20;99.90
30628;DHT22;17394;50.890;4.724;2024-02-21T14:15:26;11.20;99.90
30628;DHT22;17394;50.890;4.724;2024-02-21T14:17:51;11.10;99.90
30628;DHT22;17394;50.890;4.724;2024-02-21T14:20:17;11.00;99.90
30628;DHT22;17394;50.890;4.724;2024-02-21T14:22:43;10.90;99.90
30628;DHT22;17394;50.890;4.724;2024-02-21T14:25:09;10.90;99.90
30628;DHT22;17394;50.890;4.724;2024-02-21T14:27:35;10.80;99.90
30628;DHT22;17394;50.890;4.724;2024-02-21T14:30:04;10.70;99.90
30628;DHT22;17394;50.890;4.724;2024-02-21T14:32:30;10.70;99.90
30628;DHT22;17394;50.890;4.724;2024-02-21T14:34:56;10.70;99.90
30628;DHT22;17394;50.890;4.724;2024-02-21T14:37:22;10.60;99.90
30628;DHT22;17394;50.890;4.724;2024-02-21T14:39:47;10.60;99.90
30628;DHT22;17394;50.890;4.724;2024-02-21T14:42:13;10.50;99.90
30628;DHT22;17394;50.890;4.724;2024-02-21T14:44:39;10.50;99.90
30628;DHT22;17394;50.890;4.724;2024-02-21T14:47:05;10.50;99.90
30628;DHT22;17394;50.890;4.724;2024-02-21T14:49:31;10.40;99.90
30628;DHT22;17394;50.890;4.724;2024-02-21T14:51:57;10.30;99.90
30628;DHT22;17394;50.890;4.724;2024-02-21T14:54:23;10.20;99.90
30628;DHT22;17394;50.890;4.724;2024-02-21T14:56:49;10.20;99.90
30628;DHT22;17394;50.890;4.724;2024-02-21T14:59:15;10.10;99.90
30628;DHT22;17394;50.890;4.724;2024-02-21T15:01:44;10.10;99.90
30628;DHT22;17394;50.890;4.724;2024-02-21T15:04:10;10.00;99.90
30628;DHT22;17394;50.890;4.724;2024-02-21T15:06:36;10.00;99.90
30628;DHT22;17394;50.890;4.724;2024-02-21T15:09:03;10.00;99.90
30628;DHT22;17394;50.890;4.724;2024-02-21T15:11:29;10.00;99.90
30628;DHT22;17394;50.890;4.724;2024-02-21T15:13:55;9.90;99.90
30628;DHT22;17394;50.890;4.724;2024-02-21T15:16:22;9.90;99.90
30628;DHT22;17394;50.890;4.724;2024-02-21T15:18:47;9.90;99.90
30628;DHT22;17394;50.890;4.724;2024-02-21T15:21:13;9.80;99.90
30628;DHT22;17394;50.890;4.724;2024-02-21T15:23:41;9.70;99.90
30628;DHT22;17394;50.890;4.724;2024-02-21T15:26:07;9.70;99.90
30628;DHT22;17394;50.890;4.724;2024-02-21T15:28:33;9.70;99.90
30628;DHT22;17394;50.890;4.724;2024-02-21T15:30:58;9.70;99.90
30628;DHT22;17394;50.890;4.724;2024-02-21T15:33:24;9.70;99.90
30628;DHT22;17394;50.890;4.724;2024-02-21T15:35:51;9.60;99.90
30628;DHT22;17394;50.890;4.724;2024-02-21T15:38:17;9.60;99.90
30628;DHT22;17394;50.890;4.724;2024-02-21T15:40:43;9.60;99.90
30628;DHT22;17394;50.890;4.724;2024-02-21T15:43:09;9.50;99.90
30628;DHT22;17394;50.890;4.724;2024-02-21T15:45:34;9.50;99.90
30628;DHT22;17394;50.890;4.724;2024-02-21T15:48:00;9.50;99.90